createdAt,value
2017-10-26T00:02:03.310Z,18.53
2017-10-26T00:04:30.729Z,37.93
2017-10-26T00:06:58.119Z,29.47
2017-10-26T00:09:25.511Z,20.63
2017-10-26T00:11:52.995Z,32.67
2017-10-26T00:14:20.455Z,29.20
2017-10-26T00:16:47.863Z,39.13
2017-10-26T00:19:15.263Z,39.17
2017-10-26T00:21:42.665Z,33.63
2017-10-26T00:24:10.058Z,25.30
2017-10-26T00:26:37.535Z,20.80
2017-10-26T00:29:04.989Z,31.13
2017-10-26T00:31:32.403Z,25.30
2017-10-26T00:33:59.803Z,34.13
2017-10-26T00:36:27.203Z,34.93
2017-10-26T00:38:54.599Z,31.33
2017-10-26T00:41:22.003Z,31.37
2017-10-26T00:43:49.396Z,28.87
2017-10-26T00:46:16.878Z,37.07
2017-10-26T00:48:44.348Z,32.00
2017-10-26T00:51:11.746Z,30.07
2017-10-26T00:53:39.138Z,33.87
2017-10-26T00:56:06.535Z,32.07
2017-10-26T00:58:33.958Z,24.73
2017-10-26T01:01:01.388Z,31.00
2017-10-26T01:03:28.881Z,37.23
2017-10-26T01:05:56.326Z,23.37
2017-10-26T01:08:23.738Z,36.90
2017-10-26T01:10:51.127Z,21.40
2017-10-26T01:13:18.594Z,28.63
2017-10-26T01:15:46.054Z,23.60
2017-10-26T01:18:13.459Z,43.27
2017-10-26T01:20:40.847Z,31.53
2017-10-26T01:23:08.319Z,38.60
2017-10-26T01:25:35.719Z,25.50
2017-10-26T01:28:03.134Z,29.43
2017-10-26T01:30:30.590Z,23.20
2017-10-26T01:32:57.992Z,30.30
2017-10-26T01:35:25.390Z,28.77
2017-10-26T01:37:52.846Z,36.83
2017-10-26T01:40:20.311Z,34.10
2017-10-26T01:42:47.710Z,21.30
2017-10-26T01:45:15.101Z,26.30
2017-10-26T01:47:42.584Z,30.93
2017-10-26T01:50:09.970Z,29.00
2017-10-26T01:52:37.376Z,33.17
2017-10-26T01:55:04.781Z,32.50
2017-10-26T01:57:32.178Z,32.77
2017-10-26T01:59:59.655Z,36.83
2017-10-26T02:02:27.119Z,53.00
2017-10-26T02:04:54.511Z,34.43
2017-10-26T02:07:21.924Z,40.73
2017-10-26T02:09:49.378Z,36.67
2017-10-26T02:12:16.771Z,48.37
2017-10-26T02:14:44.195Z,35.40
2017-10-26T02:17:11.656Z,41.67
2017-10-26T02:19:39.057Z,40.13
2017-10-26T02:22:06.554Z,39.20
2017-10-26T02:24:34.019Z,33.60
2017-10-26T02:27:01.476Z,48.67
2017-10-26T02:29:40.835Z,42.07
2017-10-26T02:32:08.276Z,38.90
2017-10-26T02:34:35.724Z,39.20
2017-10-26T02:37:03.122Z,48.10
2017-10-26T02:39:30.530Z,51.33
2017-10-26T02:41:57.999Z,47.50
2017-10-26T02:44:25.418Z,48.53
2017-10-26T02:46:52.909Z,47.27
2017-10-26T02:49:20.323Z,49.50
2017-10-26T02:51:47.719Z,58.33
2017-10-26T02:54:15.178Z,48.83
2017-10-26T02:56:42.571Z,68.87
2017-10-26T02:59:09.996Z,57.03
2017-10-26T03:01:37.446Z,61.00
2017-10-26T03:04:04.846Z,43.33
2017-10-26T03:06:32.254Z,56.33
2017-10-26T03:08:59.646Z,61.87
2017-10-26T03:11:27.042Z,49.13
2017-10-26T03:13:54.472Z,47.60
2017-10-26T03:16:21.875Z,43.80
2017-10-26T03:18:49.330Z,65.33
2017-10-26T03:21:16.778Z,71.43
2017-10-26T03:23:44.170Z,46.03
2017-10-26T03:26:11.604Z,50.77
2017-10-26T03:28:39.050Z,53.67
2017-10-26T03:31:06.454Z,41.80
2017-10-26T03:33:33.867Z,50.03
2017-10-26T03:36:01.262Z,49.50
2017-10-26T03:38:28.658Z,39.30
2017-10-26T03:40:56.058Z,57.70
2017-10-26T03:43:23.451Z,53.17
2017-10-26T03:45:50.955Z,61.87
2017-10-26T03:48:18.347Z,58.43
2017-10-26T03:50:45.846Z,48.57
2017-10-26T03:53:13.308Z,69.17
2017-10-26T03:55:40.707Z,47.27
2017-10-26T03:58:08.102Z,61.10
2017-10-26T04:00:35.575Z,73.60
2017-10-26T04:03:02.962Z,59.00
2017-10-26T04:05:30.382Z,64.57
2017-10-26T04:07:57.887Z,49.83
2017-10-26T04:10:25.294Z,55.57
2017-10-26T04:12:52.699Z,48.60
2017-10-26T04:15:20.116Z,50.07
2017-10-26T04:17:47.579Z,61.73
2017-10-26T04:20:15.026Z,51.80
2017-10-26T04:22:42.423Z,47.33
2017-10-26T04:25:09.818Z,46.13
2017-10-26T04:27:37.224Z,36.90
2017-10-26T04:30:04.650Z,51.00
2017-10-26T04:32:32.048Z,52.43
2017-10-26T04:34:59.442Z,42.07
2017-10-26T04:37:26.849Z,46.77
2017-10-26T04:39:54.239Z,47.47
2017-10-26T04:42:21.635Z,44.43
2017-10-26T04:44:49.077Z,61.30
2017-10-26T04:47:16.531Z,60.30
2017-10-26T04:49:43.932Z,56.90
2017-10-26T04:52:11.359Z,45.00
2017-10-26T04:54:38.739Z,43.60
2017-10-26T04:57:06.147Z,53.03
2017-10-26T04:59:33.548Z,56.73
2017-10-26T05:02:00.963Z,51.70
2017-10-26T05:04:28.369Z,58.70
2017-10-26T05:06:55.782Z,51.20
2017-10-26T05:09:23.191Z,61.13
2017-10-26T05:11:50.591Z,53.80
2017-10-26T05:14:18.047Z,55.73
2017-10-26T05:16:45.442Z,47.53
2017-10-26T05:19:12.858Z,54.93
2017-10-26T05:21:40.253Z,44.00
2017-10-26T05:24:07.642Z,57.47
2017-10-26T05:26:35.118Z,41.43
2017-10-26T05:29:02.525Z,59.13
2017-10-26T05:31:29.934Z,47.77
2017-10-26T05:33:57.386Z,61.83
2017-10-26T05:36:24.783Z,72.33
2017-10-26T05:38:52.191Z,58.50
2017-10-26T05:41:19.659Z,58.53
2017-10-26T05:43:47.111Z,61.53
2017-10-26T05:46:14.574Z,68.00
2017-10-26T05:48:41.972Z,66.70
2017-10-26T05:51:09.367Z,61.10
2017-10-26T05:53:36.762Z,77.33
2017-10-26T05:56:04.161Z,70.03
2017-10-26T05:58:31.654Z,64.43
2017-10-26T06:00:59.105Z,61.77
2017-10-26T06:03:26.502Z,65.80
2017-10-26T06:05:53.931Z,79.20
2017-10-26T06:08:21.327Z,80.90
2017-10-26T06:13:28.737Z,101.87
2017-10-26T06:15:56.151Z,115.53
2017-10-26T06:18:23.579Z,120.57
2017-10-26T06:20:50.987Z,142.20
2017-10-26T06:23:18.391Z,114.03
2017-10-26T06:25:45.794Z,115.00
2017-10-26T06:28:13.230Z,123.73
2017-10-26T06:30:40.636Z,119.20
2017-10-26T06:33:08.131Z,128.20
2017-10-26T06:35:35.591Z,136.73
2017-10-26T06:38:02.984Z,114.97
2017-10-26T06:40:30.388Z,112.00
2017-10-26T06:42:57.783Z,135.37
2017-10-26T06:45:25.200Z,152.27
2017-10-26T06:47:52.604Z,140.40
2017-10-26T06:50:20.012Z,149.67
2017-10-26T06:52:47.415Z,147.43
2017-10-26T06:55:14.931Z,149.63
2017-10-26T06:57:42.328Z,147.10
2017-10-26T07:00:09.747Z,172.05
2017-10-26T07:02:37.145Z,159.33
2017-10-26T07:05:04.651Z,146.10
2017-10-26T07:07:32.054Z,169.00
2017-10-26T07:09:59.450Z,179.27
2017-10-26T07:12:26.855Z,172.60
2017-10-26T07:14:54.261Z,175.70
2017-10-26T07:17:21.666Z,180.40
2017-10-26T07:19:49.088Z,185.33
2017-10-26T07:22:16.494Z,170.17
2017-10-26T07:24:43.903Z,197.03
2017-10-26T07:27:11.311Z,170.23
2017-10-26T07:29:38.716Z,194.27
2017-10-26T07:32:06.130Z,165.40
2017-10-26T07:34:33.532Z,153.03
2017-10-26T07:37:00.941Z,174.23
2017-10-26T07:39:28.437Z,154.30
2017-10-26T07:41:55.895Z,156.50
2017-10-26T07:44:23.338Z,161.53
2017-10-26T07:46:50.750Z,181.43
2017-10-26T07:49:18.143Z,157.30
2017-10-26T07:51:45.611Z,151.20
2017-10-26T07:54:13.011Z,154.77
2017-10-26T07:56:40.406Z,141.43
2017-10-26T07:59:07.824Z,133.60
2017-10-26T08:01:35.252Z,117.47
2017-10-26T08:04:02.679Z,133.33
2017-10-26T08:06:30.075Z,107.77
2017-10-26T08:08:57.479Z,132.20
2017-10-26T08:11:24.962Z,107.70
2017-10-26T08:13:52.415Z,101.77
2017-10-26T08:16:19.810Z,105.10
2017-10-26T08:18:47.227Z,104.60
2017-10-26T08:21:14.634Z,111.63
2017-10-26T08:23:42.138Z,96.10
2017-10-26T08:26:09.602Z,108.90
2017-10-26T08:28:37.061Z,91.60
2017-10-26T08:31:04.466Z,89.17
2017-10-26T08:33:31.920Z,97.70
2017-10-26T08:35:59.312Z,96.93
2017-10-26T08:38:26.715Z,87.37
2017-10-26T08:40:54.106Z,92.50
2017-10-26T08:43:21.504Z,80.50
2017-10-26T08:45:48.900Z,93.37
2017-10-26T08:48:16.303Z,89.53
2017-10-26T08:50:43.759Z,96.20
2017-10-26T08:53:11.215Z,93.93
2017-10-26T08:55:38.650Z,95.97
2017-10-26T08:58:06.126Z,90.43
2017-10-26T09:00:33.534Z,88.87
2017-10-26T09:03:00.935Z,91.63
2017-10-26T09:05:28.351Z,72.87
2017-10-26T09:07:55.746Z,79.73
2017-10-26T09:10:23.155Z,100.70
2017-10-26T09:12:50.551Z,78.33
2017-10-26T09:15:17.950Z,81.00
2017-10-26T09:17:45.352Z,75.47
2017-10-26T09:20:12.831Z,84.73
2017-10-26T09:22:40.218Z,87.50
2017-10-26T09:25:07.617Z,92.53
2017-10-26T09:27:35.109Z,88.20
2017-10-26T09:30:02.499Z,83.43
2017-10-26T09:32:29.890Z,76.00
2017-10-26T09:34:57.293Z,81.80
2017-10-26T09:37:24.683Z,78.10
2017-10-26T09:39:52.178Z,89.57
2017-10-26T09:42:19.584Z,76.13
2017-10-26T09:44:46.994Z,72.90
2017-10-26T09:47:14.395Z,77.47
2017-10-26T09:49:41.802Z,77.97
2017-10-26T09:52:09.207Z,75.93
2017-10-26T09:54:36.602Z,80.47
2017-10-26T09:57:04.011Z,85.37
2017-10-26T09:59:31.402Z,76.77
2017-10-26T10:01:58.798Z,79.20
2017-10-26T10:04:26.199Z,90.43
2017-10-26T10:06:53.602Z,69.40
2017-10-26T10:09:21.203Z,67.07
2017-10-26T10:11:48.763Z,65.73
2017-10-26T10:14:16.195Z,68.23
2017-10-26T10:16:43.594Z,62.60
2017-10-26T10:19:11.074Z,67.73
2017-10-26T10:21:38.547Z,70.47
2017-10-26T10:24:05.951Z,73.53
2017-10-26T10:26:33.362Z,67.60
2017-10-26T10:29:00.804Z,71.13
2017-10-26T10:31:29.183Z,62.63
2017-10-26T10:33:56.575Z,68.97
2017-10-26T10:36:23.981Z,63.70
2017-10-26T10:38:51.456Z,69.50
2017-10-26T10:41:18.854Z,68.47
2017-10-26T10:43:46.254Z,67.93
2017-10-26T10:46:13.662Z,65.50
2017-10-26T10:48:41.061Z,62.43
2017-10-26T10:51:08.526Z,57.40
2017-10-26T10:53:35.910Z,58.83
2017-10-26T10:56:03.331Z,59.70
2017-10-26T10:58:30.735Z,59.20
2017-10-26T11:00:58.151Z,54.03
2017-10-26T11:03:25.606Z,62.07
2017-10-26T11:05:53.011Z,51.60
2017-10-26T11:08:20.418Z,47.03
2017-10-26T11:10:47.866Z,48.07
2017-10-26T11:13:15.259Z,49.07
2017-10-26T11:15:42.665Z,51.70
2017-10-26T11:18:10.058Z,49.97
2017-10-26T11:20:37.454Z,44.37
2017-10-26T11:23:04.854Z,47.73
2017-10-26T11:25:32.307Z,47.60
2017-10-26T11:27:59.712Z,54.17
2017-10-26T11:30:27.114Z,55.87
2017-10-26T11:32:54.515Z,51.57
2017-10-26T11:35:21.926Z,47.10
2017-10-26T11:37:49.327Z,42.70
2017-10-26T11:40:16.724Z,42.03
2017-10-26T11:42:44.126Z,49.13
2017-10-26T11:45:11.517Z,46.70
2017-10-26T11:47:38.921Z,46.70
2017-10-26T11:50:06.318Z,45.97
2017-10-26T11:52:33.714Z,40.23
2017-10-26T11:55:01.171Z,39.40
2017-10-26T11:57:28.567Z,53.20
2017-10-26T11:59:55.967Z,48.03
2017-10-26T12:02:23.471Z,45.27
2017-10-26T12:04:50.871Z,51.53
2017-10-26T12:07:18.280Z,36.10
2017-10-26T12:09:45.671Z,34.87
2017-10-26T12:12:13.082Z,42.27
2017-10-26T12:14:40.523Z,39.40
2017-10-26T12:17:07.999Z,43.83
2017-10-26T12:19:35.388Z,40.93
2017-10-26T12:22:02.897Z,33.77
2017-10-26T12:24:30.360Z,43.73
2017-10-26T12:26:57.769Z,38.33
2017-10-26T12:32:15.797Z,32.92
2017-10-26T12:34:43.202Z,43.57
2017-10-26T12:37:10.608Z,32.47
2017-10-26T12:39:38.023Z,40.60
2017-10-26T12:42:05.497Z,36.53
2017-10-26T12:44:32.902Z,34.40
2017-10-26T12:47:00.392Z,36.70
2017-10-26T12:49:27.791Z,34.20
2017-10-26T12:51:55.190Z,35.87
2017-10-26T12:54:22.593Z,33.00
2017-10-26T12:56:49.994Z,45.43
2017-10-26T12:59:17.392Z,31.77
2017-10-26T13:01:44.830Z,36.33
2017-10-26T13:04:12.230Z,39.57
2017-10-26T13:06:39.625Z,35.27
2017-10-26T13:09:07.020Z,30.00
2017-10-26T13:11:34.416Z,35.13
2017-10-26T13:14:01.843Z,31.80
2017-10-26T13:16:29.222Z,33.13
2017-10-26T13:18:56.678Z,28.30
2017-10-26T13:21:24.125Z,30.63
2017-10-26T13:23:51.586Z,26.87
2017-10-26T13:26:19.051Z,30.27
2017-10-26T13:28:46.503Z,33.33
2017-10-26T13:31:13.959Z,38.30
2017-10-26T13:33:41.353Z,29.73
2017-10-26T13:36:08.775Z,27.77
2017-10-26T13:38:36.235Z,35.37
2017-10-26T13:41:03.636Z,31.20
2017-10-26T13:43:31.142Z,28.13
2017-10-26T13:45:58.614Z,27.50
2017-10-26T13:48:26.012Z,32.90
2017-10-26T13:50:53.411Z,30.30
2017-10-26T13:53:20.803Z,35.80
2017-10-26T13:55:48.242Z,31.70
2017-10-26T13:58:15.630Z,34.53
2017-10-26T14:00:43.155Z,30.40
2017-10-26T14:03:10.600Z,20.27
2017-10-26T14:05:37.995Z,25.10
2017-10-26T14:08:05.414Z,26.60
2017-10-26T14:10:32.798Z,46.73
2017-10-26T14:13:00.203Z,28.33
2017-10-26T14:15:27.670Z,32.73
2017-10-26T14:17:55.063Z,24.93
2017-10-26T14:20:22.469Z,35.33
2017-10-26T14:22:49.858Z,33.93
2017-10-26T14:25:17.260Z,32.30
2017-10-26T14:27:44.657Z,29.23
2017-10-26T14:30:12.059Z,27.20
2017-10-26T14:32:39.589Z,27.60
2017-10-26T14:35:06.981Z,31.03
2017-10-26T14:37:34.481Z,27.80
2017-10-26T14:40:01.891Z,25.43
2017-10-26T14:42:29.392Z,24.50
2017-10-26T14:44:56.802Z,26.63
2017-10-26T14:47:24.223Z,30.67
2017-10-26T14:49:51.614Z,37.10
2017-10-26T14:52:19.013Z,33.60
2017-10-26T14:54:46.474Z,29.33
2017-10-26T14:57:13.924Z,27.07
2017-10-26T14:59:41.326Z,19.67
2017-10-26T15:02:08.727Z,29.87
2017-10-26T15:04:36.146Z,30.90
2017-10-26T15:07:03.542Z,22.03
2017-10-26T15:09:31.010Z,26.53
2017-10-26T15:11:58.471Z,26.27
2017-10-26T15:14:25.878Z,35.17
2017-10-26T15:16:53.383Z,22.20
2017-10-26T15:19:20.830Z,27.83
2017-10-26T15:21:48.231Z,32.17
2017-10-26T15:24:15.647Z,22.73
2017-10-26T15:26:43.108Z,30.53
2017-10-26T15:29:10.558Z,25.97
2017-10-26T15:31:37.958Z,22.87
2017-10-26T15:34:05.347Z,26.20
2017-10-26T15:36:32.747Z,28.13
2017-10-26T15:39:00.207Z,24.40
2017-10-26T15:41:27.607Z,25.90
2017-10-26T15:43:54.998Z,31.77
2017-10-26T15:46:22.402Z,25.50
2017-10-26T15:48:49.794Z,37.37
2017-10-26T15:51:17.198Z,31.17
2017-10-26T15:53:44.619Z,34.67
2017-10-26T15:56:12.027Z,24.07
2017-10-26T15:58:39.410Z,40.13
2017-10-26T16:01:06.819Z,30.67
2017-10-26T16:03:34.239Z,24.67
2017-10-26T16:06:01.676Z,32.60
2017-10-26T16:08:29.049Z,29.77
2017-10-26T16:10:56.502Z,32.40
2017-10-26T16:13:23.907Z,27.93
2017-10-26T16:15:51.307Z,20.20
2017-10-26T16:18:18.702Z,30.53
2017-10-26T16:20:46.130Z,25.93
2017-10-26T16:23:13.527Z,24.47
2017-10-26T16:25:40.932Z,21.03
2017-10-26T16:28:08.401Z,24.13
2017-10-26T16:30:35.857Z,23.87
2017-10-26T16:33:03.310Z,28.93
2017-10-26T16:35:30.708Z,22.83
2017-10-26T16:37:58.127Z,28.57
2017-10-26T16:40:25.583Z,21.43
2017-10-26T16:42:52.982Z,31.70
2017-10-26T16:45:20.384Z,24.73
2017-10-26T16:47:47.786Z,28.37
2017-10-26T16:50:15.207Z,24.03
2017-10-26T16:52:42.610Z,32.83
2017-10-26T16:55:10.010Z,23.80
2017-10-26T16:57:37.418Z,23.63
2017-10-26T17:00:04.815Z,30.30
2017-10-26T17:02:32.213Z,33.23
2017-10-26T17:04:59.639Z,25.50
2017-10-26T17:07:27.060Z,26.20
2017-10-26T17:09:54.446Z,29.50
2017-10-26T17:12:21.844Z,24.57
2017-10-26T17:14:49.248Z,21.43
2017-10-26T17:17:16.645Z,32.10
2017-10-26T17:19:44.046Z,23.10
2017-10-26T17:22:11.451Z,25.00
2017-10-26T17:24:38.887Z,25.00
2017-10-26T17:27:06.343Z,31.87
2017-10-26T17:29:33.805Z,26.93
2017-10-26T17:32:01.258Z,30.43
2017-10-26T17:34:28.735Z,20.50
2017-10-26T17:36:56.135Z,28.40
2017-10-26T17:39:23.537Z,25.20
2017-10-26T17:41:50.992Z,27.53
2017-10-26T17:44:18.397Z,29.67
2017-10-26T17:46:45.803Z,31.93
2017-10-26T17:49:13.315Z,36.53
2017-10-26T17:51:40.771Z,26.37
2017-10-26T17:54:08.216Z,25.73
2017-10-26T17:56:35.606Z,26.57
2017-10-26T17:59:03.035Z,26.37
2017-10-26T18:01:30.433Z,35.87
2017-10-26T18:03:57.826Z,28.20
2017-10-26T18:06:25.307Z,29.07
2017-10-26T18:08:52.703Z,24.80
2017-10-26T18:11:20.134Z,31.57
2017-10-26T18:13:47.526Z,28.83
2017-10-26T18:16:14.937Z,27.37
2017-10-26T18:18:42.318Z,26.43
2017-10-26T18:21:09.714Z,28.37
2017-10-26T18:23:37.113Z,34.77
2017-10-26T18:26:04.557Z,31.57
2017-10-26T18:28:32.028Z,26.23
2017-10-26T18:30:59.437Z,44.50
2017-10-26T18:33:26.862Z,31.90
2017-10-26T18:35:54.272Z,33.23
2017-10-26T18:38:21.735Z,29.40
2017-10-26T18:40:49.191Z,31.17
2017-10-26T18:43:16.643Z,35.87
2017-10-26T18:45:44.102Z,41.33
2017-10-26T18:48:11.560Z,33.87
2017-10-26T18:50:38.976Z,33.67
2017-10-26T18:53:06.368Z,31.13
2017-10-26T18:55:33.770Z,38.30
2017-10-26T18:58:01.178Z,29.27
2017-10-26T19:00:29.326Z,31.80
2017-10-26T19:02:56.823Z,25.67
2017-10-26T19:05:24.291Z,40.53
2017-10-26T19:07:51.840Z,36.67
2017-10-26T19:10:19.275Z,29.00
2017-10-26T19:12:46.862Z,28.30
2017-10-26T19:15:14.344Z,33.60
2017-10-26T19:17:41.730Z,37.27
2017-10-26T19:20:09.128Z,28.63
2017-10-26T19:22:36.533Z,24.90
2017-10-26T19:25:03.922Z,38.40
2017-10-26T19:27:31.327Z,27.43
2017-10-26T19:29:58.736Z,25.77
2017-10-26T19:32:26.138Z,27.00
2017-10-26T19:34:53.571Z,31.90
2017-10-26T19:37:21.002Z,35.67
2017-10-26T19:39:48.394Z,31.73
2017-10-26T19:42:15.811Z,25.83
2017-10-26T19:44:47.058Z,26.13
2017-10-26T19:47:14.498Z,32.23
2017-10-26T19:49:42.074Z,30.23
2017-10-26T19:52:09.503Z,28.23
2017-10-26T19:54:36.891Z,26.67
2017-10-26T19:57:04.287Z,28.97
2017-10-26T19:59:31.702Z,25.40
2017-10-26T20:01:59.103Z,34.97
2017-10-26T20:04:26.570Z,32.37
2017-10-26T20:06:53.968Z,30.80
2017-10-26T20:09:21.375Z,22.20
2017-10-26T20:11:48.845Z,24.37
2017-10-26T20:14:16.247Z,17.90
2017-10-26T20:16:43.836Z,20.00
2017-10-26T20:19:11.369Z,28.30
2017-10-26T20:21:38.767Z,13.77
2017-10-26T20:24:06.240Z,18.23
2017-10-26T20:26:33.631Z,17.63
2017-10-26T20:29:01.135Z,26.77
2017-10-26T20:31:28.531Z,18.13
2017-10-26T20:33:55.963Z,19.00
2017-10-26T20:36:23.365Z,21.30
2017-10-26T20:38:50.855Z,15.60
2017-10-26T20:41:18.312Z,20.60
2017-10-26T20:43:45.767Z,20.63
2017-10-26T20:46:13.188Z,16.10
2017-10-26T20:48:40.567Z,11.80
2017-10-26T20:51:13.644Z,10.53
2017-10-26T20:53:46.779Z,12.63
2017-10-26T20:56:19.719Z,17.13
2017-10-26T20:58:52.706Z,17.93
2017-10-26T21:01:25.685Z,19.60
2017-10-26T21:06:55.002Z,16.07
2017-10-26T21:09:25.303Z,19.83
2017-10-26T21:11:58.458Z,25.13
2017-10-26T21:14:28.664Z,18.13
2017-10-26T21:16:56.129Z,19.73
2017-10-26T21:19:23.592Z,19.33
2017-10-26T21:21:51.043Z,22.83
2017-10-26T21:24:18.503Z,13.63
2017-10-26T21:26:45.904Z,23.67
2017-10-26T21:29:13.290Z,17.33
2017-10-26T21:31:40.779Z,9.53
2017-10-26T21:34:08.176Z,27.23
2017-10-26T21:36:35.596Z,14.43
2017-10-26T21:39:03.050Z,15.87
2017-10-26T21:41:30.506Z,12.17
2017-10-26T21:43:57.890Z,14.00
2017-10-26T21:46:25.299Z,12.83
2017-10-26T21:48:52.738Z,9.77
2017-10-26T21:51:20.178Z,18.47
2017-10-26T21:53:47.579Z,10.53
2017-10-26T21:56:15.202Z,15.53
2017-10-26T21:58:42.589Z,9.93
2017-10-26T22:01:10.050Z,13.00
2017-10-26T22:03:37.449Z,13.87
2017-10-26T22:06:04.835Z,16.40
2017-10-26T22:08:32.327Z,12.60
2017-10-26T22:10:59.719Z,17.33
2017-10-26T22:13:27.115Z,12.43
2017-10-26T22:15:54.511Z,15.83
2017-10-26T22:18:21.908Z,15.07
2017-10-26T22:20:49.295Z,16.13
2017-10-26T22:23:16.751Z,9.57
2017-10-26T22:25:44.142Z,18.20
2017-10-26T22:28:11.544Z,15.60
2017-10-26T22:30:38.938Z,13.57
2017-10-26T22:33:06.380Z,20.10
2017-10-26T22:35:33.766Z,21.37
2017-10-26T22:38:01.190Z,16.23
2017-10-26T22:40:28.580Z,23.70
2017-10-26T22:42:55.987Z,22.43
2017-10-26T22:45:23.378Z,30.83
2017-10-26T22:47:50.770Z,10.53
2017-10-26T22:50:18.268Z,8.70
2017-10-26T22:52:45.663Z,10.40
2017-10-26T22:55:13.070Z,15.40
2017-10-26T22:57:40.463Z,17.50
2017-10-26T23:00:07.895Z,18.73
2017-10-26T23:05:25.959Z,14.43
2017-10-26T23:07:53.352Z,16.00
2017-10-26T23:10:20.859Z,19.83
2017-10-26T23:12:48.255Z,17.17
2017-10-26T23:15:15.671Z,28.07
2017-10-26T23:17:43.060Z,25.80
2017-10-26T23:20:10.487Z,26.23
2017-10-26T23:22:37.867Z,33.43
2017-10-26T23:25:05.263Z,27.33
2017-10-26T23:27:32.647Z,22.00
2017-10-26T23:30:00.043Z,26.33
2017-10-26T23:32:27.443Z,20.97
2017-10-26T23:34:54.834Z,32.70
2017-10-26T23:37:22.222Z,23.03
2017-10-26T23:39:49.618Z,30.20
2017-10-26T23:42:17.014Z,32.60
2017-10-26T23:44:44.426Z,27.97
2017-10-26T23:47:11.887Z,26.50
2017-10-26T23:49:39.276Z,17.40
2017-10-26T23:52:06.679Z,30.70
2017-10-26T23:54:34.071Z,27.73
2017-10-26T23:57:01.467Z,33.73
2017-10-26T23:59:28.854Z,21.40
